EmailTwitter


Observations de surface / Québec / CYSC

Régions: Québec | Canada | États-Unis | Europe | France | UK | Ailleurs
Station
Affichage
Infos & localisation pour CYSC | Aide pour décoder les METARs

Observations prises le 2018-09-25 à 13H00 UTC à SHERBROOKE, QB (CYSC)

Etat du ciel: quelques nuages.

Température: 8.0 Celsius

Point de rosée: 2.0 Celsius

Humidité relative: 66%

Vents: Sud-est à 9 km/h ou 5 noeuds.

Pression au niveau moyen de la mer: 103.16 kilopascals.

Calage altimétrique: 103.08 kilopascals ou 30.44 pouces de mercure.

Visibilité horizontale: 9.00 milles terrestres ou 14.40 kilomètres.

Observation METAR:

CYSC 251300Z AUTO 12005KT 9SM FEW250 08/02 A3044 RMK SLP316=